Shenandoah, Texas
Current Conditions -  °F | °C
As of 9:53 AM on Friday 31 Oct 2014 (Local Time) from KCXO Reporting Station
Clear Clear  
Wind Chill: 65°   Ceiling: Unl
Heat Index: 65°   Visibility: 10mi
Dew Point: 48°   Wind: 12mph
Humidity: 54%   Direction: 350°N
Pressure: 30.21"   Gusts: NA
Location:  30.2373°N, 95.5058°W
Report Text: KCXO 311453Z 35010KT 10SM CLR 18/09 A3021 RMK AO2 SLP227 T01830089 51020
Loading
Personal Weather Stations






























Interactive Weather Map
Tropical Storm Tracking
New forecast layout! Learn more

10-Day Weather Forecast

Advertisements
Track Severe Weather on mobile